Disclaimer

Please do not use the information listed here in-flight or in-navigation, as they are not provided to us by the airports but are provided by volunteers, so they might be outdated.

Search


Regions


Airport information page

No radio frequency information is available.

Airport informations:
Latitude: 33° 52' 36.91" N
Longitude: 010° 06' 12.00" E
Elevation: 26 feet - 8 meters
Operating hours: N/A
Operating agency: Military-civil joint use airport
Timezone: N/A
Fuel: N/A

Runway information:
06/24 - 3702 x 82 feet< - >1128 x 25 meters

Recent METARs:
DTTG 131400Z 08014KT 8000 SCT020 23/15 Q1023 NOSIG
DTTG 131400Z 08014KT 8000 SCT020 23/15 Q1023 NOSIG
DTTG 131500Z 08016KT 8000 FEW020 22/15 Q1023 NOSIG

Airport on the map: